Besuchen Sie unsere anderen Wetter Stationen:

Template documentation
and downloads

And another site


METAR-Meldungen aus der Umgebung


Warning: A non-numeric value encountered in /is/htdocs/wp10906056_0YHW7Q9XB7/www/weather28/metar/metarDisplay.php on line 166
   
EHVK - Volkel Rnlafb, Netherlands
Entfernung von der Station bis: SW 18 km
Aktualisierung: 04-08-2021 20:55
Bewölkt  
Bewölkt  
   Wind: NW 5.6 km/h
Wind: NW 5.6 km/h
Temperatur: 18°C
Taupunkt: 13°C
Luftfeuchte: 73%
Luftdruck: 1012 hPa
Bewölkt: Bewölkt
Sichtbarkeit: More than 10 km
Bewölkung: leicht bewölkt 640.1 m,
Teilweise bewölkt 2926.1 m,
Bewölkt 3657.6 m
EHVK 041855Z AUTO 31003KT 270V340 9999 FEW021CB SCT096 OVC120 18/13 Q1012 BLU
EDLV - Niederrhein, Germany
Entfernung von der Station bis: SO 25 km
Aktualisierung: 04-08-2021 21:20
Teilweise bewölkt  
Teilweise bewölkt  
   Wind: variiert 3.7 km/h
Wind: variiert 3.7 km/h
Temperatur: 20°C
Taupunkt: 13°C
Luftfeuchte: 64%
Luftdruck: 1012 hPa
Bewölkt: Teilweise bewölkt
Sichtbarkeit: More than 10 km
Bewölkung: Teilweise bewölkt 1493.5 m
EDLV 041920Z VRB02KT 9999 SCT049 20/13 Q1012
EHDL - Deelen Rnlafb, Netherlands
Entfernung von der Station bis: N 35 km
Aktualisierung: 04-08-2021 20:55
Klar  
Klar  
   Wind: Norden 5.6 km/h
Wind: Norden 5.6 km/h
Temperatur: 17°C
Taupunkt: 14°C
Luftfeuchte: 83%
Luftdruck: 1012 hPa
Bewölkt: Klar
Sichtbarkeit: More than 10 km
Bewölkung: Klar
EHDL 041855Z AUTO 35003KT 340V070 9999 NCD 17/14 Q1012 BLU
EHEH - Eindhoven Rnlafb, Netherlands
Entfernung von der Station bis: SW 48 km
Aktualisierung: 04-08-2021 20:55
Bewölkt  
Bewölkt  
   Wind: variiert 3.7 km/h
Wind: variiert 3.7 km/h
Temperatur: 18°C
Taupunkt: 15°C
Luftfeuchte: 83%
Luftdruck: 1012 hPa
Bewölkt: Bewölkt
Sichtbarkeit: More than 10 km
Bewölkung: Bewölkt 2834.6 m
EHEH 041855Z AUTO VRB02KT 9999 OVC093 18/15 Q1012 BLU NOSIG
EHGR - Gilze-Rijen Rnla, Netherlands
Entfernung von der Station bis: WSW 70 km
Aktualisierung: 04-08-2021 20:55
Bewölkt  
Bewölkt  
   Wind: NNW 5.6 km/h
Wind: NNW 5.6 km/h
Temperatur: 18°C
Taupunkt: 13°C
Luftfeuchte: 73%
Luftdruck: 1012 hPa
Bewölkt: Bewölkt
Sichtbarkeit: More than 10 km
Bewölkung: Bewölkt 6705.6 m
EHGR 041855Z AUTO 33003KT 250V020 9999 OVC220 18/13 Q1012 BLU
EBBL - Kleine-Brogel(Ba, Belgium
Entfernung von der Station bis: SSW 71 km
Aktualisierung: 04-08-2021 20:55
Bewölkt  
Bewölkt  
   Wind: NW 5.6 km/h
Wind: NW 5.6 km/h
Temperatur: 19°C
Taupunkt: 13°C
Luftfeuchte: 68%
Luftdruck: 1012 hPa
Bewölkt: Bewölkt
Sichtbarkeit: More than 10 km
Bewölkung: Stark bewölkt 2865.1 m,
Bewölkt 3657.6 m
EBBL 041855Z AUTO 31003KT 9999 BKN094/// OVC120/// 19/13 Q1012 BLU

Script entwickelt von  Saratoga-weather.org Angepasst für das Template von  Weerstation Leuven

Sie finden unser Wetter-Infos auch auf:

netzwerkwettercom

European Weather Network

WeatherCloud

Weather Underground

AWEKAS

Citizen Weather Observer Program (CWOP)

HAMweather, WeatherForYou, PWS Weather

Von uns verwendete Ausrüstung:

Wetterstation
Davis VP2

Wetterprogramm
Weather Display

Davis VP2

Weather Display